Time;durP1;ratioP1;P1;durP2;ratioP2;P2;SDS_P1;SDS_P2;PMS_P1;PMS_P2;Temp;Humidity;BMP_temperature;BMP_pressure;BME280_temperature;BME280_humidity;BME280_pressure;Samples;Min_cycle;Max_cycle;Signal;HPM_P1;HPM_P2
2022/04/28 00:01:08;;;;;;;29.15;7.00;;;;;;;;;;4981352;28;20043;-67
2022/04/28 00:03:35;;;;;;;39.05;8.52;;;;;;;;;;4984425;28;20076;-67
2022/04/28 00:06:01;;;;;;;31.98;7.43;;;;;;;;;;4974570;28;20080;-67
2022/04/28 00:08:27;;;;;;;28.40;8.05;;;;;;;;;;4987200;28;20097;-67
2022/04/28 00:10:53;;;;;;;35.80;8.15;;;;;;;;;;4977474;28;20030;-67
2022/04/28 00:13:19;;;;;;;28.38;7.35;;;;;;;;;;4979932;28;20027;-67
2022/04/28 00:15:46;;;;;;;31.27;8.02;;;;;;;;;;4985565;28;20030;-67
2022/04/28 00:18:12;;;;;;;34.13;8.75;;;;;;;;;;4974191;28;20027;-67
2022/04/28 00:20:38;;;;;;;34.40;8.70;;;;;;;;;;4985767;28;20114;-67
2022/04/28 00:23:04;;;;;;;28.45;7.93;;;;;;;;;;4979794;28;20026;-67
2022/04/28 00:25:30;;;;;;;32.80;7.90;;;;;;;;;;4978174;28;20527;-67
2022/04/28 00:27:56;;;;;;;42.72;8.43;;;;;;;;;;4986761;28;20026;-67
2022/04/28 00:30:24;;;;;;;47.50;8.70;;;;;;;;;;4976478;28;20026;-67
2022/04/28 00:32:50;;;;;;;36.17;8.57;;;;;;;;;;4983968;28;20396;-67
2022/04/28 00:35:16;;;;;;;37.50;8.68;;;;;;;;;;4980944;28;20077;-67
2022/04/28 00:37:43;;;;;;;24.88;8.07;;;;;;;;;;4977324;28;20483;-67
2022/04/28 00:40:11;;;;;;;31.10;8.88;;;;;;;;;;4969870;28;20506;-67
2022/04/28 00:42:37;;;;;;;42.67;9.10;;;;;;;;;;4970208;28;20038;-67
2022/04/28 00:45:03;;;;;;;45.08;10.07;;;;;;;;;;4971313;28;20129;-67
2022/04/28 00:52:59;;;;;;;32.55;8.27;;;;;;;;;;4982817;28;20031;-67
2022/04/28 00:55:25;;;;;;;25.65;8.75;;;;;;;;;;4981153;28;20101;-67
2022/04/28 00:57:51;;;;;;;40.50;8.90;;;;;;;;;;4988774;28;20056;-67
2022/04/28 01:00:17;;;;;;;25.67;9.32;;;;;;;;;;4987752;28;20034;-67
2022/04/28 01:02:44;;;;;;;32.65;8.48;;;;;;;;;;4969820;28;20035;-67
2022/04/28 01:05:10;;;;;;;39.67;9.57;;;;;;;;;;4977728;28;20079;-67
2022/04/28 01:07:37;;;;;;;32.15;8.85;;;;;;;;;;4989358;28;20031;-67
2022/04/28 01:10:04;;;;;;;40.38;9.20;;;;;;;;;;4988433;28;20111;-67
2022/04/28 01:12:33;;;;;;;33.85;9.00;;;;;;;;;;4988017;28;20038;-67
2022/04/28 01:15:00;;;;;;;34.72;8.90;;;;;;;;;;4981699;28;20503;-67
2022/04/28 01:17:26;;;;;;;34.03;9.77;;;;;;;;;;4979519;28;20310;-67
2022/04/28 01:20:02;;;;;;;44.10;9.93;;;;;;;;;;4973566;28;20035;-67
2022/04/28 01:22:31;;;;;;;38.58;9.27;;;;;;;;;;4987111;28;20626;-67
2022/04/28 01:25:04;;;;;;;42.50;9.60;;;;;;;;;;4988302;28;20523;-67
2022/04/28 01:27:30;;;;;;;28.48;9.98;;;;;;;;;;4977530;28;20035;-67
2022/04/28 01:29:56;;;;;;;35.13;9.38;;;;;;;;;;4983140;28;20488;-67
2022/04/28 01:32:23;;;;;;;43.97;10.15;;;;;;;;;;4987512;28;20038;-67
2022/04/28 01:34:49;;;;;;;37.60;9.38;;;;;;;;;;4984616;28;20098;-67
2022/04/28 01:37:16;;;;;;;41.75;11.02;;;;;;;;;;4978671;28;20026;-67
2022/04/28 01:39:42;;;;;;;50.28;10.88;;;;;;;;;;4975893;28;20037;-67
2022/04/28 01:42:09;;;;;;;41.80;10.43;;;;;;;;;;4985794;28;20062;-67
2022/04/28 01:44:36;;;;;;;35.42;9.90;;;;;;;;;;4989157;28;20022;-67
2022/04/28 01:47:02;;;;;;;32.47;9.68;;;;;;;;;;4988136;28;20087;-67
2022/04/28 01:49:47;;;;;;;52.35;11.30;;;;;;;;;;4989304;28;20079;-67
2022/04/28 01:55:39;;;;;;;36.80;9.57;;;;;;;;;;4987900;28;20038;-67
2022/04/28 01:58:28;;;;;;;41.75;11.25;;;;;;;;;;4981860;28;20122;-67
2022/04/28 02:01:14;;;;;;;30.77;9.82;;;;;;;;;;4969044;28;20034;-67
2022/04/28 02:03:40;;;;;;;41.20;11.45;;;;;;;;;;4979836;28;20037;-67
2022/04/28 02:06:06;;;;;;;38.45;9.77;;;;;;;;;;4972937;28;20481;-67
2022/04/28 02:08:33;;;;;;;33.47;10.35;;;;;;;;;;4986340;28;20048;-67
2022/04/28 02:11:00;;;;;;;32.95;9.30;;;;;;;;;;4987590;28;20424;-67
2022/04/28 02:13:46;;;;;;;38.10;10.13;;;;;;;;;;5002519;28;20031;-67
2022/04/28 02:16:20;;;;;;;35.97;10.70;;;;;;;;;;4986963;28;20092;-67
2022/04/28 02:19:22;;;;;;;37.20;10.02;;;;;;;;;;4994785;28;20026;-67
2022/04/28 02:21:48;;;;;;;43.30;11.45;;;;;;;;;;4980523;28;20071;-67
2022/04/28 02:24:14;;;;;;;42.88;11.02;;;;;;;;;;4987559;28;20026;-67
2022/04/28 02:26:43;;;;;;;43.22;10.57;;;;;;;;;;4971631;28;20100;-67
2022/04/28 02:29:09;;;;;;;39.92;10.13;;;;;;;;;;4981139;28;20361;-67
2022/04/28 02:31:38;;;;;;;42.40;11.80;;;;;;;;;;4983839;28;20045;-67
2022/04/28 02:34:04;;;;;;;33.97;10.60;;;;;;;;;;4989830;28;20054;-67
2022/04/28 02:36:39;;;;;;;41.88;10.13;;;;;;;;;;4989807;28;20067;-67
2022/04/28 02:39:06;;;;;;;44.08;10.80;;;;;;;;;;4971679;28;20447;-67
2022/04/28 02:41:34;;;;;;;40.30;10.98;;;;;;;;;;4977974;28;20023;-67
2022/04/28 02:44:00;;;;;;;26.95;10.25;;;;;;;;;;4984760;28;20036;-67
2022/04/28 02:46:27;;;;;;;37.10;10.63;;;;;;;;;;4974269;28;20092;-67
2022/04/28 02:48:58;;;;;;;30.15;10.25;;;;;;;;;;4971581;28;20066;-67
2022/04/28 02:51:24;;;;;;;40.65;10.73;;;;;;;;;;4979518;28;20096;-67
2022/04/28 02:53:50;;;;;;;38.47;10.15;;;;;;;;;;4979104;28;20022;-67
2022/04/28 02:56:17;;;;;;;44.67;11.07;;;;;;;;;;4986425;28;20072;-67
2022/04/28 02:58:43;;;;;;;34.10;10.70;;;;;;;;;;4972076;28;20041;-67
2022/04/28 03:01:09;;;;;;;43.78;10.93;;;;;;;;;;4971886;28;20405;-67
2022/04/28 03:03:38;;;;;;;51.08;11.13;;;;;;;;;;4980881;28;20107;-67
2022/04/28 03:11:35;;;;;;;38.40;12.15;;;;;;;;;;4990373;28;20038;-67
2022/04/28 03:14:02;;;;;;;33.22;10.60;;;;;;;;;;4990965;28;20041;-67
2022/04/28 03:16:30;;;;;;;40.33;11.95;;;;;;;;;;4990439;28;20222;-67
2022/04/28 03:19:07;;;;;;;54.50;11.95;;;;;;;;;;4990492;28;20056;-67
2022/04/28 03:21:34;;;;;;;41.60;12.15;;;;;;;;;;4990513;28;20038;-67
2022/04/28 03:24:02;;;;;;;34.53;10.95;;;;;;;;;;4990595;28;20083;-67
2022/04/28 03:26:30;;;;;;;42.65;12.38;;;;;;;;;;4990393;28;20030;-67
2022/04/28 03:28:57;;;;;;;41.83;10.77;;;;;;;;;;4990535;28;20030;-67
2022/04/28 03:31:26;;;;;;;41.65;11.50;;;;;;;;;;4990237;28;20125;-67
2022/04/28 03:34:12;;;;;;;40.35;12.13;;;;;;;;;;4991433;28;20470;-67
2022/04/28 03:36:51;;;;;;;37.63;10.80;;;;;;;;;;4984454;28;20050;-67
2022/04/28 03:39:20;;;;;;;37.00;10.43;;;;;;;;;;4978123;28;20027;-67
2022/04/28 03:41:46;;;;;;;47.35;12.25;;;;;;;;;;4979145;28;20061;-67
2022/04/28 03:44:12;;;;;;;53.00;12.27;;;;;;;;;;4979618;28;20061;-67
2022/04/28 03:46:38;;;;;;;51.00;11.95;;;;;;;;;;4979286;28;20026;-67
2022/04/28 03:49:05;;;;;;;34.60;12.10;;;;;;;;;;4984327;28;20030;-67
2022/04/28 03:51:32;;;;;;;45.83;14.20;;;;;;;;;;4978399;28;20027;-67
2022/04/28 03:54:02;;;;;;;37.53;12.20;;;;;;;;;;4974300;28;20438;-67
2022/04/28 03:56:32;;;;;;;49.45;12.00;;;;;;;;;;4981352;28;20031;-67
2022/04/28 03:59:05;;;;;;;39.45;11.98;;;;;;;;;;4977086;28;20492;-67
2022/04/28 04:01:46;;;;;;;45.40;11.80;;;;;;;;;;4987453;28;20396;-67
2022/04/28 04:04:14;;;;;;;39.63;11.68;;;;;;;;;;4989483;28;20068;-67
2022/04/28 04:06:45;;;;;;;49.45;12.35;;;;;;;;;;4979555;28;20118;-67
2022/04/28 04:09:46;;;;;;;42.58;11.48;;;;;;;;;;4973150;28;20420;-67
2022/04/28 04:12:27;;;;;;;29.98;11.70;;;;;;;;;;4989463;28;20026;-67
2022/04/28 04:15:11;;;;;;;40.53;11.75;;;;;;;;;;4983874;28;20490;-67
2022/04/28 04:17:56;;;;;;;35.33;12.23;;;;;;;;;;4971208;28;20045;-67
2022/04/28 04:20:25;;;;;;;36.25;11.82;;;;;;;;;;5055231;28;20038;-67
2022/04/28 04:22:55;;;;;;;47.97;12.10;;;;;;;;;;5054807;28;20084;-67
2022/04/28 04:25:21;;;;;;;44.17;12.82;;;;;;;;;;4971503;28;20035;-67
2022/04/28 04:27:52;;;;;;;40.70;11.90;;;;;;;;;;5054629;28;20027;-67
2022/04/28 04:33:23;;;;;;;39.58;12.73;;;;;;;;;;4989400;28;20500;-67
2022/04/28 04:35:49;;;;;;;51.28;13.60;;;;;;;;;;4989352;28;20049;-67
2022/04/28 04:38:16;;;;;;;42.97;12.75;;;;;;;;;;4989544;28;20037;-67
2022/04/28 04:40:42;;;;;;;41.08;12.02;;;;;;;;;;4989218;28;20022;-67
2022/04/28 04:43:13;;;;;;;36.60;14.05;;;;;;;;;;4990776;28;20066;-67
2022/04/28 04:45:44;;;;;;;33.00;12.37;;;;;;;;;;4989154;28;20039;-67
2022/04/28 04:48:13;;;;;;;44.97;12.73;;;;;;;;;;4990571;28;20042;-67
2022/04/28 04:50:49;;;;;;;34.63;14.10;;;;;;;;;;4990297;28;20038;-67
2022/04/28 04:53:38;;;;;;;41.50;12.00;;;;;;;;;;4990265;28;20034;-67
2022/04/28 04:56:05;;;;;;;40.95;12.18;;;;;;;;;;4988724;28;20503;-67
2022/04/28 04:58:31;;;;;;;40.65;12.90;;;;;;;;;;4990380;28;20065;-67
2022/04/28 05:00:58;;;;;;;39.78;13.10;;;;;;;;;;4988744;28;20049;-67
2022/04/28 05:03:24;;;;;;;44.08;14.45;;;;;;;;;;4990377;28;20438;-67
2022/04/28 05:06:29;;;;;;;48.88;13.57;;;;;;;;;;5048361;28;20410;-67
2022/04/28 05:09:18;;;;;;;49.47;14.65;;;;;;;;;;5046728;28;20037;-67
2022/04/28 05:11:44;;;;;;;44.47;15.55;;;;;;;;;;5027436;28;20041;-67
2022/04/28 05:14:15;;;;;;;47.97;14.23;;;;;;;;;;5038138;28;20120;-67
2022/04/28 05:16:41;;;;;;;47.38;13.68;;;;;;;;;;5021614;28;20037;-67
2022/04/28 05:19:34;;;;;;;40.70;15.37;;;;;;;;;;5045052;28;20128;-67
2022/04/28 05:22:04;;;;;;;41.60;12.93;;;;;;;;;;5046840;28;20048;-67
2022/04/28 05:24:48;;;;;;;32.83;13.00;;;;;;;;;;5041911;28;20148;-67
2022/04/28 05:27:33;;;;;;;44.15;14.00;;;;;;;;;;5040418;28;20599;-67
2022/04/28 05:30:31;;;;;;;37.38;13.27;;;;;;;;;;5012067;28;20037;-67
2022/04/28 05:33:12;;;;;;;32.33;12.73;;;;;;;;;;5048804;28;20041;-67
2022/04/28 05:36:00;;;;;;;38.42;13.57;;;;;;;;;;5040262;28;20576;-67
2022/04/28 05:38:27;;;;;;;46.05;12.50;;;;;;;;;;4970021;28;20077;-67
2022/04/28 05:40:53;;;;;;;42.78;14.75;;;;;;;;;;4975919;28;20442;-67
2022/04/28 05:46:05;;;;;;;41.42;12.38;;;;;;;;;;4971125;28;20122;-67
2022/04/28 05:48:34;;;;;;;40.58;13.20;;;;;;;;;;4969604;28;20011;-67
2022/04/28 05:51:01;;;;;;;42.97;13.50;;;;;;;;;;5052871;28;20432;-67
2022/04/28 05:53:27;;;;;;;40.92;12.70;;;;;;;;;;4976567;28;20030;-67
2022/04/28 05:55:58;;;;;;;37.00;13.07;;;;;;;;;;4987231;28;20096;-67
2022/04/28 05:58:35;;;;;;;41.42;13.68;;;;;;;;;;4987396;28;20047;-67
2022/04/28 06:01:27;;;;;;;38.78;12.77;;;;;;;;;;5045310;28;20064;-67
2022/04/28 06:03:55;;;;;;;45.38;12.70;;;;;;;;;;5030735;28;20041;-67
2022/04/28 06:06:21;;;;;;;48.00;15.88;;;;;;;;;;5047455;28;20076;-67
2022/04/28 06:08:52;;;;;;;50.45;13.75;;;;;;;;;;5032058;28;20044;-67
2022/04/28 06:11:19;;;;;;;41.80;13.13;;;;;;;;;;5033830;28;20519;-67
2022/04/28 06:13:45;;;;;;;38.00;12.88;;;;;;;;;;5034744;28;20044;-68
2022/04/28 06:16:30;;;;;;;47.70;14.13;;;;;;;;;;5052943;28;20040;-70
2022/04/28 06:19:10;;;;;;;47.08;13.25;;;;;;;;;;5051972;28;20749;-67
2022/04/28 06:21:54;;;;;;;47.75;12.82;;;;;;;;;;5052683;28;20036;-67
2022/04/28 06:24:21;;;;;;;35.00;13.25;;;;;;;;;;5033901;28;20082;-67
2022/04/28 06:26:47;;;;;;;35.00;12.85;;;;;;;;;;5035292;28;20380;-67
2022/04/28 06:29:14;;;;;;;40.58;13.25;;;;;;;;;;5052322;28;20064;-67
2022/04/28 06:31:40;;;;;;;40.72;13.05;;;;;;;;;;5036067;28;20049;-67
2022/04/28 06:34:35;;;;;;;40.35;12.48;;;;;;;;;;5051342;28;20037;-65
2022/04/28 06:37:01;;;;;;;42.13;11.90;;;;;;;;;;5030047;28;20112;-66
2022/04/28 06:39:30;;;;;;;36.53;12.75;;;;;;;;;;4979391;28;20030;-66
2022/04/28 06:41:56;;;;;;;31.63;11.38;;;;;;;;;;4985038;28;20034;-66
2022/04/28 06:44:42;;;;;;;38.80;12.50;;;;;;;;;;4972842;28;20027;-66
2022/04/28 06:47:27;;;;;;;44.72;13.73;;;;;;;;;;4972628;28;20073;-66
2022/04/28 06:50:13;;;;;;;37.90;13.98;;;;;;;;;;5052396;28;20045;-66
2022/04/28 06:52:58;;;;;;;41.85;11.55;;;;;;;;;;5052475;28;20059;-66
2022/04/28 06:55:33;;;;;;;42.28;14.18;;;;;;;;;;5029574;28;20438;-66
2022/04/28 06:58:01;;;;;;;41.50;11.90;;;;;;;;;;5047336;28;20053;-66
2022/04/28 07:00:32;;;;;;;46.53;12.13;;;;;;;;;;5048832;28;20029;-66
2022/04/28 07:02:59;;;;;;;41.60;10.95;;;;;;;;;;5033275;28;20075;-66
2022/04/28 07:05:28;;;;;;;38.75;11.90;;;;;;;;;;5039490;28;20029;-67
2022/04/28 07:07:57;;;;;;;37.05;12.15;;;;;;;;;;5043175;28;20045;-66
2022/04/28 07:10:31;;;;;;;38.10;12.23;;;;;;;;;;5039456;28;20033;-66
2022/04/28 07:12:57;;;;;;;40.63;13.05;;;;;;;;;;5031458;28;20032;-66
2022/04/28 07:15:42;;;;;;;35.83;11.38;;;;;;;;;;5052116;28;20036;-67
2022/04/28 07:18:15;;;;;;;33.57;10.83;;;;;;;;;;5042247;28;20073;-66
2022/04/28 07:20:44;;;;;;;29.48;10.82;;;;;;;;;;5028561;28;20143;-67
2022/04/28 07:23:11;;;;;;;36.65;12.20;;;;;;;;;;5032921;28;20489;-66
2022/04/28 07:25:38;;;;;;;40.97;12.90;;;;;;;;;;5033990;28;20044;-66
2022/04/28 07:28:04;;;;;;;28.65;11.05;;;;;;;;;;4980398;28;20064;-66
2022/04/28 07:30:53;;;;;;;32.38;10.60;;;;;;;;;;4980424;28;20085;-66
2022/04/28 07:33:37;;;;;;;35.63;11.07;;;;;;;;;;4992228;28;20042;-66
2022/04/28 07:36:22;;;;;;;31.42;10.52;;;;;;;;;;4987057;28;20117;-66
2022/04/28 07:39:06;;;;;;;36.33;12.82;;;;;;;;;;4972298;28;20042;-66
2022/04/28 07:41:42;;;;;;;35.33;10.85;;;;;;;;;;4971376;28;20035;-66
2022/04/28 07:44:09;;;;;;;30.30;10.65;;;;;;;;;;4971310;28;20547;-66
2022/04/28 07:46:37;;;;;;;36.03;12.10;;;;;;;;;;4971154;28;20031;-67
2022/04/28 07:49:03;;;;;;;33.67;10.93;;;;;;;;;;4971538;28;20035;-66
2022/04/28 07:51:34;;;;;;;38.75;13.00;;;;;;;;;;4971174;28;20035;-66
2022/04/28 07:54:02;;;;;;;37.45;12.10;;;;;;;;;;4971166;28;20091;-67
2022/04/28 07:56:29;;;;;;;31.77;11.05;;;;;;;;;;4970999;28;20043;-67
2022/04/28 07:58:55;;;;;;;36.38;13.20;;;;;;;;;;4971145;28;20057;-67
2022/04/28 08:01:28;;;;;;;;;;;;;;;;;;4971516;28;20042;-66
2022/04/28 08:03:55;;;;;;;37.47;12.48;;;;;;;;;;4971029;28;19977;-66
2022/04/28 08:06:22;;;;;;;29.95;12.57;;;;;;;;;;4970950;28;20031;-66
2022/04/28 08:08:49;;;;;;;40.22;11.52;;;;;;;;;;4974798;28;20155;-66
2022/04/28 08:11:16;;;;;;;42.90;12.82;;;;;;;;;;4981216;28;20034;-66
2022/04/28 08:13:42;;;;;;;30.90;12.35;;;;;;;;;;4971017;28;20376;-66
2022/04/28 08:16:24;;;;;;;34.73;10.60;;;;;;;;;;4970807;28;20054;-66
2022/04/28 08:18:51;;;;;;;36.72;12.10;;;;;;;;;;4971009;28;20038;-66
2022/04/28 08:21:39;;;;;;;31.25;12.10;;;;;;;;;;4996005;28;20028;-66
2022/04/28 08:24:06;;;;;;;31.58;11.27;;;;;;;;;;4986880;28;20035;-66
2022/04/28 08:26:32;;;;;;;41.60;12.68;;;;;;;;;;4980937;28;20030;-66
2022/04/28 08:29:01;;;;;;;34.08;12.18;;;;;;;;;;4974264;28;20034;-66
2022/04/28 08:31:29;;;;;;;26.33;11.88;;;;;;;;;;4974209;28;20042;-66
2022/04/28 08:33:57;;;;;;;38.67;11.50;;;;;;;;;;4979958;28;20337;-66
2022/04/28 08:36:28;;;;;;;33.20;11.43;;;;;;;;;;4982133;28;20023;-66
2022/04/28 08:38:59;;;;;;;41.00;12.52;;;;;;;;;;4975524;28;20033;-66
2022/04/28 08:41:31;;;;;;;32.47;11.73;;;;;;;;;;4976995;28;20395;-66
2022/04/28 08:44:20;;;;;;;36.28;11.38;;;;;;;;;;4976870;28;20088;-66
2022/04/28 08:46:51;;;;;;;37.15;11.90;;;;;;;;;;4979428;28;20043;-66
2022/04/28 08:49:30;;;;;;;34.25;12.48;;;;;;;;;;4993488;28;20039;-66
2022/04/28 08:52:36;;;;;;;37.75;11.20;;;;;;;;;;4995963;28;20374;-66
2022/04/28 08:55:13;;;;;;;30.73;11.63;;;;;;;;;;4982651;28;20030;-66
2022/04/28 08:57:39;;;;;;;31.80;12.45;;;;;;;;;;4970103;28;20081;-66
2022/04/28 09:00:06;;;;;;;34.28;10.57;;;;;;;;;;4976775;28;20066;-66
2022/04/28 09:02:52;;;;;;;38.10;12.93;;;;;;;;;;4976696;28;20035;-66
2022/04/28 09:05:35;;;;;;;30.33;11.48;;;;;;;;;;4972554;28;20065;-66
2022/04/28 09:08:19;;;;;;;37.67;13.50;;;;;;;;;;4978652;28;20100;-66
2022/04/28 09:11:04;;;;;;;29.08;12.07;;;;;;;;;;4978653;28;20038;-66
2022/04/28 09:14:09;;;;;;;30.52;12.18;;;;;;;;;;4985533;28;20039;-66
2022/04/28 09:16:47;;;;;;;47.58;12.93;;;;;;;;;;4985177;28;20501;-66
2022/04/28 09:19:19;;;;;;;36.58;13.30;;;;;;;;;;4974301;28;20034;-66
2022/04/28 09:21:47;;;;;;;36.58;12.75;;;;;;;;;;4974856;28;20061;-66
2022/04/28 09:24:14;;;;;;;31.42;12.02;;;;;;;;;;4965624;28;20030;-66
2022/04/28 09:26:41;;;;;;;42.70;12.77;;;;;;;;;;4974661;28;20396;-66
2022/04/28 09:29:14;;;;;;;30.60;10.43;;;;;;;;;;4979385;28;20033;-66
2022/04/28 09:31:43;;;;;;;38.72;12.80;;;;;;;;;;4974079;28;20027;-66
2022/04/28 09:34:46;;;;;;;32.25;13.05;;;;;;;;;;5048137;28;20040;-63
2022/04/28 09:37:31;;;;;;;32.70;11.70;;;;;;;;;;5041239;28;20044;-63
2022/04/28 09:42:42;;;;;;;34.90;12.23;;;;;;;;;;5042057;28;20052;-63
2022/04/28 09:45:20;;;;;;;35.50;11.85;;;;;;;;;;5052009;28;20426;-62
2022/04/28 09:48:04;;;;;;;27.70;12.15;;;;;;;;;;5044374;28;20122;-63
2022/04/28 09:50:50;;;;;;;35.13;11.60;;;;;;;;;;5048637;28;20038;-63
2022/04/28 09:53:16;;;;;;;36.42;11.80;;;;;;;;;;5050958;28;20638;-63
2022/04/28 09:56:03;;;;;;;35.70;12.13;;;;;;;;;;5038422;28;20017;-63
2022/04/28 09:58:55;;;;;;;;;;;;;;;;;;5042198;28;20041;-63
2022/04/28 10:01:22;;;;;;;36.58;12.13;;;;;;;;;;5032198;28;19909;-63
2022/04/28 10:03:48;;;;;;;41.60;13.18;;;;;;;;;;5044356;28;20382;-63
2022/04/28 10:06:19;;;;;;;39.83;13.45;;;;;;;;;;5039438;28;20029;-63
2022/04/28 10:08:56;;;;;;;33.20;12.27;;;;;;;;;;5051872;28;20041;-63
2022/04/28 10:11:23;;;;;;;32.75;13.25;;;;;;;;;;5004977;28;20040;-63
2022/04/28 10:13:50;;;;;;;37.78;11.98;;;;;;;;;;4971812;28;20085;-63
2022/04/28 10:16:20;;;;;;;32.63;13.30;;;;;;;;;;4971746;28;20031;-62
2022/04/28 10:18:49;;;;;;;34.42;13.88;;;;;;;;;;4978610;28;20033;-62
2022/04/28 10:21:20;;;;;;;46.00;15.07;;;;;;;;;;4972034;28;20019;-63
2022/04/28 10:33:01;;;;;;;32.92;13.10;;;;;;;;;;4979307;28;20027;-63
2022/04/28 10:35:31;;;;;;;35.45;12.23;;;;;;;;;;4971231;28;20031;-63
2022/04/28 10:38:04;;;;;;;35.50;12.85;;;;;;;;;;4977327;28;20026;-63
2022/04/28 10:40:36;;;;;;;36.40;12.63;;;;;;;;;;4980836;28;20534;-63
2022/04/28 10:43:02;;;;;;;34.63;13.25;;;;;;;;;;4981769;28;20023;-63
2022/04/28 10:45:38;;;;;;;38.08;13.13;;;;;;;;;;4982925;28;20038;-63
2022/04/28 10:51:00;;;;;;;32.45;11.93;;;;;;;;;;4986222;28;20035;-63
2022/04/28 10:53:27;;;;;;;33.28;11.35;;;;;;;;;;4981660;28;20066;-63
2022/04/28 10:55:53;;;;;;;39.30;12.73;;;;;;;;;;4976533;28;20597;-62
2022/04/28 10:58:19;;;;;;;32.20;12.85;;;;;;;;;;4976134;28;20164;-62
2022/04/28 11:00:52;;;;;;;36.63;14.02;;;;;;;;;;4975846;28;20108;-62
2022/04/28 11:03:37;;;;;;;26.92;12.20;;;;;;;;;;4983870;28;20038;-63
2022/04/28 11:06:27;;;;;;;31.83;12.38;;;;;;;;;;4979460;28;20038;-63
2022/04/28 11:08:55;;;;;;;37.35;12.75;;;;;;;;;;4986939;28;20442;-62
2022/04/28 11:11:24;;;;;;;40.85;12.20;;;;;;;;;;4979669;28;20030;-62
2022/04/28 11:13:56;;;;;;;31.98;12.95;;;;;;;;;;4981916;28;20027;-62
2022/04/28 11:16:22;;;;;;;37.40;13.50;;;;;;;;;;4976870;28;20403;-63
2022/04/28 11:18:49;;;;;;;40.97;12.07;;;;;;;;;;4981559;28;20105;-63
2022/04/28 11:21:15;;;;;;;30.50;12.68;;;;;;;;;;4979105;28;20045;-62
2022/04/28 11:23:45;;;;;;;38.03;13.43;;;;;;;;;;4980584;28;20106;-63
2022/04/28 11:26:44;;;;;;;39.33;13.30;;;;;;;;;;4996254;28;20034;-63
2022/04/28 11:29:25;;;;;;;31.60;12.57;;;;;;;;;;4983829;28;20031;-62
2022/04/28 11:31:53;;;;;;;37.85;13.07;;;;;;;;;;4982767;28;20030;-63
2022/04/28 11:34:19;;;;;;;31.00;13.32;;;;;;;;;;4982506;28;20011;-63
2022/04/28 11:36:46;;;;;;;36.40;13.25;;;;;;;;;;4981611;28;20117;-63
2022/04/28 11:39:12;;;;;;;30.30;12.40;;;;;;;;;;4979037;28;20189;-62
2022/04/28 11:41:40;;;;;;;32.55;12.88;;;;;;;;;;4984374;28;20041;-62
2022/04/28 11:44:08;;;;;;;31.02;13.23;;;;;;;;;;4981342;28;20027;-63
2022/04/28 11:46:53;;;;;;;36.42;12.40;;;;;;;;;;4985376;28;20033;-63
2022/04/28 11:49:20;;;;;;;33.42;13.38;;;;;;;;;;4979309;28;20027;-62
2022/04/28 11:51:47;;;;;;;41.00;12.88;;;;;;;;;;5024268;28;20035;-62
2022/04/28 11:54:24;;;;;;;44.15;13.32;;;;;;;;;;5045360;28;20066;-62
2022/04/28 11:56:50;;;;;;;38.85;12.68;;;;;;;;;;4987734;28;20042;-62
2022/04/28 11:59:17;;;;;;;39.20;12.80;;;;;;;;;;4983228;28;20029;-63
2022/04/28 12:01:44;;;;;;;31.15;11.88;;;;;;;;;;4980793;28;20037;-62
2022/04/28 12:04:11;;;;;;;26.73;11.88;;;;;;;;;;4989757;28;20030;-62
2022/04/28 12:06:38;;;;;;;29.10;12.73;;;;;;;;;;5003207;28;20039;-63
2022/04/28 12:14:35;;;;;;;28.85;12.38;;;;;;;;;;4983632;28;20030;-62
2022/04/28 12:19:47;;;;;;;30.17;12.43;;;;;;;;;;4977610;28;20053;-63
2022/04/28 12:22:14;;;;;;;34.67;13.20;;;;;;;;;;5009127;28;20037;-63
2022/04/28 12:24:43;;;;;;;33.97;13.80;;;;;;;;;;4980578;28;20030;-62
2022/04/28 12:27:11;;;;;;;30.75;11.77;;;;;;;;;;4978557;28;20025;-63
2022/04/28 12:29:54;;;;;;;33.67;11.75;;;;;;;;;;4976940;28;20035;-63
2022/04/28 12:32:23;;;;;;;32.42;12.45;;;;;;;;;;4978937;28;20027;-63
2022/04/28 12:34:59;;;;;;;35.25;12.50;;;;;;;;;;4972415;28;20515;-63
2022/04/28 12:37:26;;;;;;;28.40;12.70;;;;;;;;;;4975446;28;20018;-62
2022/04/28 12:39:59;;;;;;;34.95;12.75;;;;;;;;;;4978518;28;20049;-62
2022/04/28 12:42:26;;;;;;;30.23;12.57;;;;;;;;;;4969318;28;20487;-62
2022/04/28 12:44:53;;;;;;;27.27;12.45;;;;;;;;;;4977115;28;20018;-62
2022/04/28 12:47:19;;;;;;;24.80;11.88;;;;;;;;;;4977691;28;20038;-63
2022/04/28 12:49:47;;;;;;;29.20;12.43;;;;;;;;;;4983606;28;20071;-63
2022/04/28 12:52:34;;;;;;;32.60;11.75;;;;;;;;;;4977283;28;20092;-62
2022/04/28 12:55:06;;;;;;;26.17;11.35;;;;;;;;;;4986242;28;20388;-63
2022/04/28 12:57:32;;;;;;;33.08;11.85;;;;;;;;;;4988249;28;20126;-62
2022/04/28 13:00:04;;;;;;;30.13;11.52;;;;;;;;;;4988193;28;20377;-62
2022/04/28 13:02:31;;;;;;;39.10;12.60;;;;;;;;;;4987851;28;20034;-63
2022/04/28 13:05:08;;;;;;;28.10;11.50;;;;;;;;;;4988533;28;20068;-62
2022/04/28 13:07:34;;;;;;;28.55;11.57;;;;;;;;;;4988245;28;20080;-62
2022/04/28 13:10:00;;;;;;;29.65;11.93;;;;;;;;;;4979587;28;20027;-63
2022/04/28 13:12:26;;;;;;;36.92;12.48;;;;;;;;;;4979471;28;20110;-63
2022/04/28 13:14:52;;;;;;;31.85;11.43;;;;;;;;;;4972611;28;20023;-63
2022/04/28 13:17:19;;;;;;;21.88;10.82;;;;;;;;;;4968750;28;20400;-62
2022/04/28 13:19:45;;;;;;;35.47;12.27;;;;;;;;;;4972727;28;20019;-63
2022/04/28 13:22:11;;;;;;;32.53;11.82;;;;;;;;;;4981097;28;20026;-63
2022/04/28 13:24:37;;;;;;;30.75;11.73;;;;;;;;;;4976955;28;20023;-62
2022/04/28 13:27:03;;;;;;;35.85;11.65;;;;;;;;;;4974772;28;20023;-62
2022/04/28 13:29:29;;;;;;;30.75;11.93;;;;;;;;;;4987072;28;20040;-63
2022/04/28 13:31:56;;;;;;;30.30;10.93;;;;;;;;;;4982869;28;20121;-63
2022/04/28 13:34:22;;;;;;;27.92;11.40;;;;;;;;;;4977014;28;20042;-63
2022/04/28 13:36:48;;;;;;;28.45;10.90;;;;;;;;;;4980591;28;20023;-62
2022/04/28 13:39:14;;;;;;;26.35;11.68;;;;;;;;;;4973345;28;20031;-63
2022/04/28 13:41:42;;;;;;;28.92;10.68;;;;;;;;;;4968076;28;20049;-63
2022/04/28 13:44:10;;;;;;;29.88;10.95;;;;;;;;;;4974656;28;20101;-62
2022/04/28 13:46:37;;;;;;;24.00;11.32;;;;;;;;;;4978369;28;20037;-63
2022/04/28 13:49:03;;;;;;;25.17;11.73;;;;;;;;;;4973994;28;20133;-62
2022/04/28 13:51:29;;;;;;;22.58;11.13;;;;;;;;;;4977977;28;20034;-62
2022/04/28 13:53:55;;;;;;;25.08;10.38;;;;;;;;;;4975961;28;20015;-63
2022/04/28 13:56:22;;;;;;;26.45;10.30;;;;;;;;;;4984377;28;20446;-63
2022/04/28 13:58:49;;;;;;;30.30;11.07;;;;;;;;;;4981975;28;20031;-63
2022/04/28 14:01:16;;;;;;;30.73;11.82;;;;;;;;;;4979663;28;20031;-62
2022/04/28 14:03:42;;;;;;;28.92;11.10;;;;;;;;;;4982216;28;20031;-63
2022/04/28 14:06:09;;;;;;;24.02;11.18;;;;;;;;;;4978388;28;20030;-63
2022/04/28 14:08:36;;;;;;;26.85;10.02;;;;;;;;;;4978041;28;20070;-63
2022/04/28 14:11:04;;;;;;;22.42;9.55;;;;;;;;;;4969028;28;20093;-63
2022/04/28 14:13:30;;;;;;;33.67;11.18;;;;;;;;;;4972211;28;20025;-63
2022/04/28 14:15:57;;;;;;;27.85;10.55;;;;;;;;;;4970229;28;20139;-63
2022/04/28 14:18:23;;;;;;;31.27;10.60;;;;;;;;;;4969257;28;20062;-62
2022/04/28 14:20:50;;;;;;;25.52;10.65;;;;;;;;;;4971698;28;20035;-63
2022/04/28 14:23:16;;;;;;;28.05;10.43;;;;;;;;;;4980510;28;20030;-62
2022/04/28 14:25:42;;;;;;;30.40;10.90;;;;;;;;;;4978970;28;20087;-62
2022/04/28 14:28:08;;;;;;;24.75;9.80;;;;;;;;;;4974004;28;20041;-63
2022/04/28 14:30:35;;;;;;;31.02;10.18;;;;;;;;;;4976324;28;20027;-63
2022/04/28 14:33:02;;;;;;;28.30;11.05;;;;;;;;;;4985087;28;20483;-63
2022/04/28 14:35:28;;;;;;;26.73;9.82;;;;;;;;;;4984190;28;20059;-63
2022/04/28 14:37:54;;;;;;;29.80;10.55;;;;;;;;;;4976293;28;20031;-63
2022/04/28 14:40:20;;;;;;;31.58;10.98;;;;;;;;;;4974321;28;20045;-62
2022/04/28 14:42:46;;;;;;;22.92;9.90;;;;;;;;;;4980633;28;20058;-62
2022/04/28 14:45:13;;;;;;;26.27;9.40;;;;;;;;;;4978192;28;20042;-63
2022/04/28 14:47:41;;;;;;;25.05;10.02;;;;;;;;;;4984805;28;20045;-62
2022/04/28 14:52:52;;;;;;;24.35;9.68;;;;;;;;;;4981574;28;20042;-63
2022/04/28 14:55:19;;;;;;;25.77;9.85;;;;;;;;;;4976115;28;20107;-63
2022/04/28 14:57:46;;;;;;;30.25;11.40;;;;;;;;;;4980450;28;20524;-63
2022/04/28 15:00:14;;;;;;;24.13;9.95;;;;;;;;;;4974841;28;20034;-63
2022/04/28 15:02:40;;;;;;;23.80;9.75;;;;;;;;;;4973478;28;20049;-63
2022/04/28 15:05:07;;;;;;;22.45;10.30;;;;;;;;;;4980438;28;20037;-63
2022/04/28 15:07:33;;;;;;;20.10;10.10;;;;;;;;;;4977931;28;20037;-63
2022/04/28 15:10:02;;;;;;;26.95;10.13;;;;;;;;;;4983351;28;20031;-63
2022/04/28 15:12:29;;;;;;;26.95;10.23;;;;;;;;;;4976370;28;20165;-63
2022/04/28 15:14:59;;;;;;;25.23;9.93;;;;;;;;;;4977325;28;20566;-63
2022/04/28 15:17:26;;;;;;;22.92;10.43;;;;;;;;;;4979477;28;20109;-63
2022/04/28 15:19:52;;;;;;;24.90;10.13;;;;;;;;;;4979695;28;20023;-63
2022/04/28 15:22:18;;;;;;;20.92;9.23;;;;;;;;;;4972072;28;20057;-63
2022/04/28 15:24:45;;;;;;;30.73;11.00;;;;;;;;;;4975271;28;20572;-63
2022/04/28 15:27:11;;;;;;;22.55;8.90;;;;;;;;;;4983845;28;20031;-62